createdAt,value
2023-06-11T00:00:25.019Z,17.99
2023-06-11T00:01:25.015Z,17.97
2023-06-11T00:02:25.000Z,17.95
2023-06-11T00:03:25.198Z,17.94
2023-06-11T00:04:24.991Z,17.93
2023-06-11T00:05:24.978Z,17.91
2023-06-11T00:06:24.955Z,17.89
2023-06-11T00:07:24.914Z,17.84
2023-06-11T00:08:24.918Z,17.80
2023-06-11T00:09:24.945Z,17.78
2023-06-11T00:10:24.911Z,17.76
2023-06-11T00:11:24.902Z,17.75
2023-06-11T00:12:24.880Z,17.74
2023-06-11T00:13:24.853Z,17.73
2023-06-11T00:14:24.998Z,17.70
2023-06-11T00:15:24.829Z,17.67
2023-06-11T00:16:24.849Z,17.65
2023-06-11T00:17:24.860Z,17.63
2023-06-11T00:18:24.850Z,17.60
2023-06-11T00:19:24.779Z,17.57
2023-06-11T00:20:24.778Z,17.55
2023-06-11T00:21:24.733Z,17.54
2023-06-11T00:22:24.752Z,17.54
2023-06-11T00:23:24.754Z,17.53
2023-06-11T00:24:24.800Z,17.53
2023-06-11T00:25:24.702Z,17.52
2023-06-11T00:26:24.663Z,17.51
2023-06-11T00:27:24.659Z,17.52
2023-06-11T00:28:24.638Z,17.54
2023-06-11T00:29:24.648Z,17.55
2023-06-11T00:30:24.625Z,17.55
2023-06-11T00:31:24.670Z,17.55
2023-06-11T00:32:24.673Z,17.55
2023-06-11T00:33:24.568Z,17.55
2023-06-11T00:34:24.558Z,17.54
2023-06-11T00:35:24.575Z,17.54
2023-06-11T00:36:24.525Z,17.55
2023-06-11T00:37:24.534Z,17.54
2023-06-11T00:38:24.530Z,17.51
2023-06-11T00:39:24.489Z,17.48
2023-06-11T00:40:24.516Z,17.45
2023-06-11T00:41:24.495Z,17.43
2023-06-11T00:42:24.451Z,17.39
2023-06-11T00:43:24.444Z,17.35
2023-06-11T00:44:24.447Z,17.32
2023-06-11T00:45:24.435Z,17.30
2023-06-11T00:46:24.457Z,17.28
2023-06-11T00:47:24.422Z,17.25
2023-06-11T00:48:24.410Z,17.22
2023-06-11T00:49:24.362Z,17.18
2023-06-11T00:50:24.391Z,17.15
2023-06-11T00:51:24.355Z,17.13
2023-06-11T00:52:24.322Z,17.10
2023-06-11T00:53:24.359Z,17.07
2023-06-11T00:54:24.294Z,17.05
2023-06-11T00:55:24.308Z,17.02
2023-06-11T00:56:24.272Z,17.00
2023-06-11T00:57:24.279Z,16.98
2023-06-11T00:58:24.295Z,16.98
2023-06-11T00:59:24.267Z,16.98
2023-06-11T01:00:24.217Z,16.98
2023-06-11T01:01:24.262Z,17.00
2023-06-11T01:02:24.185Z,17.00
2023-06-11T01:03:24.211Z,16.99
2023-06-11T01:04:24.255Z,16.99
2023-06-11T01:05:24.392Z,16.99
2023-06-11T01:06:24.143Z,17.00
2023-06-11T01:07:24.128Z,16.99
2023-06-11T01:08:24.100Z,16.95
2023-06-11T01:09:24.094Z,16.92
2023-06-11T01:10:24.076Z,16.87
2023-06-11T01:11:24.132Z,16.84
2023-06-11T01:12:24.058Z,16.85
2023-06-11T01:13:24.032Z,16.87
2023-06-11T01:14:24.020Z,16.88
2023-06-11T01:15:24.016Z,16.89
2023-06-11T01:16:24.014Z,16.90
2023-06-11T01:17:24.214Z,16.90
2023-06-11T01:18:23.972Z,16.90
2023-06-11T01:19:23.958Z,16.91
2023-06-11T01:20:23.936Z,16.90
2023-06-11T01:21:23.927Z,16.88
2023-06-11T01:22:23.913Z,16.88
2023-06-11T01:23:23.939Z,16.87
2023-06-11T01:24:23.984Z,16.87
2023-06-11T01:25:23.887Z,16.86
2023-06-11T01:26:23.883Z,16.86
2023-06-11T01:27:23.833Z,16.86
2023-06-11T01:28:23.823Z,16.86
2023-06-11T01:29:23.876Z,16.86
2023-06-11T01:30:23.793Z,16.86
2023-06-11T01:31:23.853Z,16.84
2023-06-11T01:32:23.809Z,16.81
2023-06-11T01:33:23.762Z,16.77
2023-06-11T01:34:23.744Z,16.74
2023-06-11T01:35:23.755Z,16.72
2023-06-11T01:36:23.746Z,16.71
2023-06-11T01:37:23.724Z,16.71
2023-06-11T01:38:23.710Z,16.70
2023-06-11T01:39:23.679Z,16.70
2023-06-11T01:40:23.658Z,16.69
2023-06-11T01:41:23.666Z,16.67
2023-06-11T01:42:23.630Z,16.66
2023-06-11T01:43:23.624Z,16.66
2023-06-11T01:44:23.622Z,16.65
2023-06-11T01:45:23.597Z,16.61
2023-06-11T01:46:23.647Z,16.58
2023-06-11T01:47:23.657Z,16.56
2023-06-11T01:48:23.564Z,16.54
2023-06-11T01:49:23.552Z,16.53
2023-06-11T01:50:23.534Z,16.53
2023-06-11T01:51:23.510Z,16.55
2023-06-11T01:52:23.515Z,16.55
2023-06-11T01:53:23.518Z,16.55
2023-06-11T01:54:23.480Z,16.55
2023-06-11T01:55:23.474Z,16.54
2023-06-11T01:56:23.754Z,16.54
2023-06-11T01:57:23.440Z,16.54
2023-06-11T01:58:23.422Z,16.56
2023-06-11T01:59:23.448Z,16.56
2023-06-11T02:00:23.408Z,16.55
2023-06-11T02:01:23.446Z,16.55
2023-06-11T02:02:23.397Z,16.54
2023-06-11T02:03:23.455Z,16.54
2023-06-11T02:04:23.348Z,16.54
2023-06-11T02:05:23.346Z,16.55
2023-06-11T02:06:23.322Z,16.55
2023-06-11T02:07:23.296Z,16.54
2023-06-11T02:08:23.283Z,16.53
2023-06-11T02:09:23.275Z,16.53
2023-06-11T02:10:23.280Z,16.52
2023-06-11T02:11:23.271Z,16.54
2023-06-11T02:12:23.292Z,16.56
2023-06-11T02:13:23.232Z,16.56
2023-06-11T02:14:23.257Z,16.57
2023-06-11T02:15:23.240Z,16.57
2023-06-11T02:16:23.291Z,16.56
2023-06-11T02:17:23.286Z,16.54
2023-06-11T02:18:23.214Z,16.52
2023-06-11T02:19:23.151Z,16.51
2023-06-11T02:20:23.159Z,16.50
2023-06-11T02:21:23.112Z,16.50
2023-06-11T02:22:23.153Z,16.51
2023-06-11T02:23:23.122Z,16.49
2023-06-11T02:24:23.121Z,16.48
2023-06-11T02:25:23.078Z,16.47
2023-06-11T02:26:23.082Z,16.47
2023-06-11T02:27:23.038Z,16.47
2023-06-11T02:28:23.019Z,16.48
2023-06-11T02:29:23.044Z,16.47
2023-06-11T02:30:23.000Z,16.47
2023-06-11T02:31:23.014Z,16.48
2023-06-11T02:32:23.053Z,16.49
2023-06-11T02:33:22.976Z,16.47
2023-06-11T02:34:22.938Z,16.45
2023-06-11T02:35:22.965Z,16.43
2023-06-11T02:36:22.936Z,16.41
2023-06-11T02:37:22.916Z,16.39
2023-06-11T02:38:22.895Z,16.38
2023-06-11T02:39:22.889Z,16.38
2023-06-11T02:40:22.871Z,16.38
2023-06-11T02:41:22.889Z,16.39
2023-06-11T02:42:22.848Z,16.38
2023-06-11T02:43:22.820Z,16.39
2023-06-11T02:44:22.876Z,16.38
2023-06-11T02:45:22.815Z,16.39
2023-06-11T02:46:22.812Z,16.41
2023-06-11T02:47:22.798Z,16.42
2023-06-11T02:48:22.792Z,16.42
2023-06-11T02:49:22.757Z,16.39
2023-06-11T02:50:22.758Z,16.38
2023-06-11T02:51:22.725Z,16.36
2023-06-11T02:52:22.700Z,16.35
2023-06-11T02:53:22.781Z,16.35
2023-06-11T02:54:22.679Z,16.33
2023-06-11T02:55:22.706Z,16.33
2023-06-11T02:56:22.661Z,16.32
2023-06-11T02:57:22.644Z,16.32
2023-06-11T02:58:22.685Z,16.33
2023-06-11T02:59:22.631Z,16.32
2023-06-11T03:00:22.602Z,16.32
2023-06-11T03:01:22.605Z,16.34
2023-06-11T03:02:22.645Z,16.36
2023-06-11T03:03:22.590Z,16.36
2023-06-11T03:04:22.619Z,16.37
2023-06-11T03:05:22.562Z,16.37
2023-06-11T03:06:22.512Z,16.37
2023-06-11T03:07:22.515Z,16.38
2023-06-11T03:08:22.546Z,16.39
2023-06-11T03:09:22.480Z,16.38
2023-06-11T03:10:22.466Z,16.37
2023-06-11T03:11:22.472Z,16.37
2023-06-11T03:12:22.434Z,16.38
2023-06-11T03:13:22.433Z,16.37
2023-06-11T03:14:22.522Z,16.36
2023-06-11T03:15:22.410Z,16.33
2023-06-11T03:16:22.408Z,16.34
2023-06-11T03:17:22.420Z,16.34
2023-06-11T03:18:22.373Z,16.36
2023-06-11T03:19:22.372Z,16.37
2023-06-11T03:20:22.330Z,16.38
2023-06-11T03:21:22.328Z,16.41
2023-06-11T03:22:22.306Z,16.44
2023-06-11T03:23:22.333Z,16.45
2023-06-11T03:24:22.343Z,16.46
2023-06-11T03:25:22.262Z,16.48
2023-06-11T03:26:22.248Z,16.48
2023-06-11T03:27:22.242Z,16.49
2023-06-11T03:28:22.223Z,16.48
2023-06-11T03:29:22.227Z,16.49
2023-06-11T03:30:22.190Z,16.50
2023-06-11T03:31:22.274Z,16.50
2023-06-11T03:32:22.181Z,16.50
2023-06-11T03:33:22.146Z,16.50
2023-06-11T03:34:22.146Z,16.50
2023-06-11T03:35:22.144Z,16.49
2023-06-11T03:36:22.152Z,16.50
2023-06-11T03:37:22.099Z,16.49
2023-06-11T03:38:22.080Z,16.51
2023-06-11T03:39:22.061Z,16.53
2023-06-11T03:40:22.065Z,16.55
2023-06-11T03:41:22.059Z,16.56
2023-06-11T03:42:22.022Z,16.57
2023-06-11T03:43:22.055Z,16.58
2023-06-11T03:44:22.002Z,16.57
2023-06-11T03:45:21.999Z,16.56
2023-06-11T03:46:22.030Z,16.52
2023-06-11T03:47:22.004Z,16.51
2023-06-11T03:48:21.965Z,16.52
2023-06-11T03:49:21.950Z,16.53
2023-06-11T03:50:21.921Z,16.53
2023-06-11T03:51:21.911Z,16.53
2023-06-11T03:52:21.936Z,16.52
2023-06-11T03:53:21.907Z,16.52
2023-06-11T03:54:21.867Z,16.53
2023-06-11T03:55:21.864Z,16.55
2023-06-11T03:56:21.840Z,16.55
2023-06-11T03:57:21.826Z,16.55
2023-06-11T03:58:21.822Z,16.55
2023-06-11T03:59:21.813Z,16.53
2023-06-11T04:00:21.807Z,16.51
2023-06-11T04:01:21.794Z,16.50
2023-06-11T04:02:21.888Z,16.53
2023-06-11T04:03:21.822Z,16.54
2023-06-11T04:04:21.812Z,16.57
2023-06-11T04:05:21.745Z,16.59
2023-06-11T04:06:21.711Z,16.60
2023-06-11T04:07:21.717Z,16.59
2023-06-11T04:08:21.688Z,16.58
2023-06-11T04:09:21.668Z,16.57
2023-06-11T04:10:21.674Z,16.54
2023-06-11T04:11:21.651Z,16.53
2023-06-11T04:12:21.652Z,16.53
2023-06-11T04:13:21.611Z,16.53
2023-06-11T04:14:21.594Z,16.54
2023-06-11T04:15:21.589Z,16.54
2023-06-11T04:16:21.645Z,16.53
2023-06-11T04:17:21.762Z,16.53
2023-06-11T04:18:21.566Z,16.55
2023-06-11T04:19:21.754Z,16.57
2023-06-11T04:20:21.541Z,16.56
2023-06-11T04:21:21.517Z,16.56
2023-06-11T04:22:21.492Z,16.57
2023-06-11T04:23:21.493Z,16.58
2023-06-11T04:24:21.552Z,16.58
2023-06-11T04:25:21.459Z,16.58
2023-06-11T04:26:21.447Z,16.58
2023-06-11T04:27:21.426Z,16.59
2023-06-11T04:28:21.416Z,16.59
2023-06-11T04:29:21.435Z,16.61
2023-06-11T04:30:21.412Z,16.64
2023-06-11T04:31:21.389Z,16.65
2023-06-11T04:32:21.472Z,16.64
2023-06-11T04:33:21.352Z,16.63
2023-06-11T04:34:21.339Z,16.64
2023-06-11T04:35:21.344Z,16.64
2023-06-11T04:36:21.295Z,16.61
2023-06-11T04:37:21.314Z,16.59
2023-06-11T04:38:21.295Z,16.58
2023-06-11T04:39:21.280Z,16.60
2023-06-11T04:40:21.254Z,16.63
2023-06-11T04:41:21.260Z,16.67
2023-06-11T04:42:21.234Z,16.70
2023-06-11T04:43:21.226Z,16.73
2023-06-11T04:44:21.226Z,16.75
2023-06-11T04:45:21.176Z,16.78
2023-06-11T04:46:21.308Z,16.81
2023-06-11T04:47:21.230Z,16.86
2023-06-11T04:48:21.140Z,16.91
2023-06-11T04:49:21.131Z,16.95
2023-06-11T04:50:21.128Z,16.98
2023-06-11T04:51:21.124Z,16.99
2023-06-11T04:52:21.095Z,16.98
2023-06-11T04:53:21.101Z,16.98
2023-06-11T04:54:21.074Z,16.99
2023-06-11T04:55:21.077Z,17.01
2023-06-11T04:56:21.071Z,17.05
2023-06-11T04:57:21.049Z,17.09
2023-06-11T04:58:21.021Z,17.15
2023-06-11T04:59:21.014Z,17.20
2023-06-11T05:00:20.984Z,17.23
2023-06-11T05:01:21.013Z,17.27
2023-06-11T05:02:21.183Z,17.32
2023-06-11T05:03:20.932Z,17.34
2023-06-11T05:04:20.945Z,17.37
2023-06-11T05:05:21.001Z,17.41
2023-06-11T05:06:20.910Z,17.43
2023-06-11T05:07:20.902Z,17.46
2023-06-11T05:08:21.022Z,17.47
2023-06-11T05:09:20.892Z,17.48
2023-06-11T05:10:20.862Z,17.47
2023-06-11T05:11:20.858Z,17.46
2023-06-11T05:12:20.939Z,17.47
2023-06-11T05:13:20.808Z,17.49
2023-06-11T05:14:20.819Z,17.49
2023-06-11T05:15:20.781Z,17.49
2023-06-11T05:16:20.804Z,17.51
2023-06-11T05:17:20.835Z,17.52
2023-06-11T05:18:20.737Z,17.53
2023-06-11T05:19:20.738Z,17.52
2023-06-11T05:20:20.719Z,17.52
2023-06-11T05:21:20.737Z,17.53
2023-06-11T05:22:20.709Z,17.55
2023-06-11T05:23:20.720Z,17.53
2023-06-11T05:24:21.103Z,17.53
2023-06-11T05:25:20.709Z,17.51
2023-06-11T05:26:20.673Z,17.50
2023-06-11T05:27:20.627Z,17.48
2023-06-11T05:28:20.654Z,17.46
2023-06-11T05:29:20.634Z,17.46
2023-06-11T05:30:20.620Z,17.45
2023-06-11T05:31:20.606Z,17.46
2023-06-11T05:32:20.728Z,17.47
2023-06-11T05:33:20.545Z,17.48
2023-06-11T05:34:20.554Z,17.51
2023-06-11T05:35:20.592Z,17.51
2023-06-11T05:36:20.694Z,17.51
2023-06-11T05:37:20.626Z,17.52
2023-06-11T05:38:20.493Z,17.54
2023-06-11T05:39:20.509Z,17.57
2023-06-11T05:40:20.679Z,17.57
2023-06-11T05:41:20.537Z,17.57
2023-06-11T05:42:20.532Z,17.57
2023-06-11T05:43:20.644Z,17.57
2023-06-11T05:44:20.425Z,17.59
2023-06-11T05:45:20.582Z,17.63
2023-06-11T05:46:20.596Z,17.67
2023-06-11T05:47:20.723Z,17.73
2023-06-11T05:48:20.453Z,17.78
2023-06-11T05:49:20.401Z,17.82
2023-06-11T05:50:20.343Z,17.87
2023-06-11T05:51:20.399Z,17.91
2023-06-11T05:52:20.422Z,17.94
2023-06-11T05:53:20.356Z,17.95
2023-06-11T05:54:20.278Z,17.97
2023-06-11T05:55:20.267Z,18.00
2023-06-11T05:56:20.387Z,18.03
2023-06-11T05:57:20.671Z,18.07
2023-06-11T05:58:20.207Z,18.10
2023-06-11T05:59:20.202Z,18.15
2023-06-11T06:00:20.196Z,18.20
2023-06-11T06:01:20.169Z,18.25
2023-06-11T06:02:20.238Z,18.30
2023-06-11T06:03:20.230Z,18.36
2023-06-11T06:04:20.265Z,18.41
2023-06-11T06:05:20.142Z,18.44
2023-06-11T06:06:20.104Z,18.46
2023-06-11T06:07:20.109Z,18.47
2023-06-11T06:08:20.136Z,18.49
2023-06-11T06:09:20.191Z,18.49
2023-06-11T06:10:20.170Z,18.49
2023-06-11T06:11:20.242Z,18.48
2023-06-11T06:12:20.013Z,18.47
2023-06-11T06:13:20.017Z,18.49
2023-06-11T06:14:19.995Z,18.49
2023-06-11T06:15:20.040Z,18.50
2023-06-11T06:16:20.039Z,18.52
2023-06-11T06:17:19.989Z,18.52
2023-06-11T06:18:19.932Z,18.53
2023-06-11T06:19:20.012Z,18.55
2023-06-11T06:20:19.927Z,18.59
2023-06-11T06:21:19.906Z,18.61
2023-06-11T06:22:19.899Z,18.63
2023-06-11T06:23:19.978Z,18.66
2023-06-11T06:24:19.989Z,18.69
2023-06-11T06:25:19.864Z,18.72
2023-06-11T06:26:19.840Z,18.74
2023-06-11T06:27:19.812Z,18.78
2023-06-11T06:28:19.801Z,18.81
2023-06-11T06:29:20.065Z,18.84
2023-06-11T06:30:19.780Z,18.87
2023-06-11T06:31:19.847Z,18.88
2023-06-11T06:32:19.746Z,18.89
2023-06-11T06:33:19.795Z,18.89
2023-06-11T06:34:19.742Z,18.89
2023-06-11T06:35:19.757Z,18.89
2023-06-11T06:36:19.701Z,18.91
2023-06-11T06:37:19.732Z,18.94
2023-06-11T06:38:19.682Z,18.97
2023-06-11T06:39:19.682Z,19.01
2023-06-11T06:40:19.664Z,19.05
2023-06-11T06:41:19.681Z,19.08
2023-06-11T06:42:19.637Z,19.12
2023-06-11T06:43:19.603Z,19.14
2023-06-11T06:44:19.610Z,19.18
2023-06-11T06:45:19.583Z,19.21
2023-06-11T06:46:19.577Z,19.23
2023-06-11T06:47:19.631Z,19.23
2023-06-11T06:48:19.625Z,19.19
2023-06-11T06:49:19.547Z,19.16
2023-06-11T06:50:19.586Z,19.11
2023-06-11T06:51:19.497Z,19.09
2023-06-11T06:52:19.493Z,19.07
2023-06-11T06:53:19.502Z,19.06
2023-06-11T06:54:19.478Z,19.09
2023-06-11T06:55:19.481Z,19.13
2023-06-11T06:56:19.480Z,19.12
2023-06-11T06:57:19.421Z,19.12
2023-06-11T06:58:19.439Z,19.13
2023-06-11T06:59:19.427Z,19.13
2023-06-11T07:00:19.465Z,19.12
2023-06-11T07:01:19.477Z,19.10
2023-06-11T07:02:19.509Z,19.10
2023-06-11T07:03:19.366Z,19.12
2023-06-11T07:04:19.344Z,19.13
2023-06-11T07:05:19.426Z,19.16
2023-06-11T07:06:19.346Z,19.17
2023-06-11T07:07:19.296Z,19.17
2023-06-11T07:08:19.271Z,19.17
2023-06-11T07:09:19.278Z,19.15
2023-06-11T07:10:19.236Z,19.11
2023-06-11T07:11:19.285Z,19.09
2023-06-11T07:12:19.268Z,19.09
2023-06-11T07:13:19.220Z,19.09
2023-06-11T07:14:19.206Z,19.08
2023-06-11T07:15:19.172Z,19.06
2023-06-11T07:16:19.199Z,19.04
2023-06-11T07:17:19.160Z,19.02
2023-06-11T07:18:19.165Z,19.00
2023-06-11T07:19:19.156Z,19.01
2023-06-11T07:20:19.170Z,19.04
2023-06-11T07:21:19.114Z,19.08
2023-06-11T07:22:19.078Z,19.12
2023-06-11T07:23:22.579Z,19.15
2023-06-11T07:24:19.145Z,19.17
2023-06-11T07:25:19.061Z,19.16
2023-06-11T07:26:19.055Z,19.16
2023-06-11T07:27:19.055Z,19.16
2023-06-11T07:28:19.005Z,19.18
2023-06-11T07:29:19.019Z,19.19
2023-06-11T07:30:19.036Z,19.20
2023-06-11T07:31:19.011Z,19.17
2023-06-11T07:32:18.957Z,19.17
2023-06-11T07:33:18.963Z,19.15
2023-06-11T07:34:18.947Z,19.13
2023-06-11T07:35:18.960Z,19.15
2023-06-11T07:36:18.940Z,19.17
2023-06-11T07:37:18.908Z,19.18
2023-06-11T07:38:18.892Z,19.17
2023-06-11T07:39:18.870Z,19.15
2023-06-11T07:40:18.858Z,19.15
2023-06-11T07:41:18.884Z,19.15
2023-06-11T07:42:18.855Z,19.16
2023-06-11T07:43:18.840Z,19.15
2023-06-11T07:44:18.802Z,19.15
2023-06-11T07:45:21.141Z,19.16
2023-06-11T07:46:18.817Z,19.17
2023-06-11T07:47:18.781Z,19.19
2023-06-11T07:48:18.774Z,19.21
2023-06-11T07:49:18.750Z,19.21
2023-06-11T07:50:18.758Z,19.21
2023-06-11T07:51:20.440Z,19.21
2023-06-11T07:52:18.686Z,19.22
2023-06-11T07:53:18.723Z,19.23
2023-06-11T07:54:18.932Z,19.23
2023-06-11T07:55:18.689Z,19.23
2023-06-11T07:56:18.638Z,19.23
2023-06-11T07:57:18.627Z,19.23
2023-06-11T07:58:18.700Z,19.23
2023-06-11T07:59:18.618Z,19.22
2023-06-11T08:00:18.885Z,19.20
2023-06-11T08:01:18.571Z,19.20
2023-06-11T08:02:18.666Z,19.21
2023-06-11T08:03:18.602Z,19.22
2023-06-11T08:04:18.533Z,19.24
2023-06-11T08:05:18.544Z,19.27
2023-06-11T08:06:18.521Z,19.30
2023-06-11T08:07:18.532Z,19.31
2023-06-11T08:08:18.485Z,19.34
2023-06-11T08:09:18.472Z,19.36
2023-06-11T08:10:18.488Z,19.38
2023-06-11T08:11:18.483Z,19.40
2023-06-11T08:12:18.430Z,19.40
2023-06-11T08:13:18.459Z,19.39
2023-06-11T08:14:18.432Z,19.39
2023-06-11T08:15:18.396Z,19.40
2023-06-11T08:16:18.430Z,19.42
2023-06-11T08:17:18.383Z,19.42
2023-06-11T08:18:19.970Z,19.42
2023-06-11T08:19:18.477Z,19.43
2023-06-11T08:20:18.448Z,19.45
2023-06-11T08:21:18.303Z,19.49
2023-06-11T08:22:18.303Z,19.52
2023-06-11T08:23:18.325Z,19.55
2023-06-11T08:24:18.415Z,19.60
2023-06-11T08:25:18.276Z,19.62
2023-06-11T08:26:18.292Z,19.63
2023-06-11T08:27:18.241Z,19.65
2023-06-11T08:28:18.282Z,19.67
2023-06-11T08:29:18.244Z,19.67
2023-06-11T08:30:18.210Z,19.67
2023-06-11T08:31:18.228Z,19.68
2023-06-11T08:32:18.243Z,19.70
2023-06-11T08:33:18.333Z,19.72
2023-06-11T08:34:18.133Z,19.74
2023-06-11T08:35:18.143Z,19.77
2023-06-11T08:36:18.149Z,19.80
2023-06-11T08:37:18.121Z,19.83
2023-06-11T08:38:18.110Z,19.87
2023-06-11T08:39:18.064Z,19.88
2023-06-11T08:40:18.070Z,19.86
2023-06-11T08:41:18.117Z,19.87
2023-06-11T08:42:18.071Z,19.88
2023-06-11T08:43:18.035Z,19.88
2023-06-11T08:44:18.102Z,19.86
2023-06-11T08:45:18.033Z,19.85
2023-06-11T08:46:18.020Z,19.84
2023-06-11T08:47:18.009Z,19.83
2023-06-11T08:48:18.018Z,19.81
2023-06-11T08:49:17.933Z,19.78
2023-06-11T08:50:17.955Z,19.77
2023-06-11T08:51:17.957Z,19.78
2023-06-11T08:52:18.000Z,19.79
2023-06-11T08:53:17.972Z,19.79
2023-06-11T08:54:17.882Z,19.77
2023-06-11T08:55:17.865Z,19.77
2023-06-11T08:56:17.855Z,19.76
2023-06-11T08:57:17.839Z,19.77
2023-06-11T08:58:17.859Z,19.76
2023-06-11T08:59:17.817Z,19.73
2023-06-11T09:00:17.852Z,19.72
2023-06-11T09:01:17.805Z,19.70
2023-06-11T09:02:17.797Z,19.69
2023-06-11T09:03:17.839Z,19.67
2023-06-11T09:04:17.878Z,19.66
2023-06-11T09:05:17.765Z,19.68
2023-06-11T09:06:17.819Z,19.70
2023-06-11T09:07:17.698Z,19.73
2023-06-11T09:08:17.758Z,19.78
2023-06-11T09:09:17.798Z,19.83
2023-06-11T09:10:17.758Z,19.90
2023-06-11T09:11:17.664Z,19.95
2023-06-11T09:12:17.644Z,19.97
2023-06-11T09:13:17.671Z,19.99
2023-06-11T09:14:17.650Z,19.99
2023-06-11T09:15:17.655Z,20.00
2023-06-11T09:16:17.622Z,20.01
2023-06-11T09:17:17.629Z,19.99
2023-06-11T09:18:17.557Z,19.99
2023-06-11T09:19:17.583Z,20.01
2023-06-11T09:20:17.635Z,20.04
2023-06-11T09:21:17.525Z,20.08
2023-06-11T09:22:17.508Z,20.11
2023-06-11T09:23:17.554Z,20.14
2023-06-11T09:24:17.590Z,20.17
2023-06-11T09:25:17.652Z,20.21
2023-06-11T09:26:17.455Z,20.25
2023-06-11T09:27:17.449Z,20.29
2023-06-11T09:28:17.487Z,20.32
2023-06-11T09:29:17.445Z,20.33
2023-06-11T09:30:17.433Z,20.35
2023-06-11T09:31:17.408Z,20.37
2023-06-11T09:33:18.502Z,20.36
2023-06-11T09:34:17.371Z,20.37
2023-06-11T09:35:21.339Z,20.37
2023-06-11T09:36:17.355Z,20.39
2023-06-11T09:37:17.341Z,20.38
2023-06-11T09:38:17.293Z,20.38
2023-06-11T09:39:17.290Z,20.38
2023-06-11T09:40:17.356Z,20.38
2023-06-11T09:41:20.458Z,20.37
2023-06-11T09:42:17.262Z,20.37
2023-06-11T09:43:17.222Z,20.35
2023-06-11T09:44:17.235Z,20.33
2023-06-11T09:45:17.228Z,20.30
2023-06-11T09:46:17.240Z,20.28
2023-06-11T09:47:17.233Z,20.28
2023-06-11T09:48:17.229Z,20.28
2023-06-11T09:49:17.356Z,20.29
2023-06-11T09:50:17.393Z,20.32
2023-06-11T09:51:17.139Z,20.32
2023-06-11T09:52:17.131Z,20.33
2023-06-11T09:53:17.304Z,20.36
2023-06-11T09:54:17.102Z,20.40
2023-06-11T09:55:17.148Z,20.43
2023-06-11T09:56:17.092Z,20.46
2023-06-11T09:57:17.077Z,20.49
2023-06-11T09:58:17.084Z,20.53
2023-06-11T09:59:17.032Z,20.55
2023-06-11T10:00:17.036Z,20.57
2023-06-11T10:01:17.184Z,20.59
2023-06-11T10:02:17.012Z,20.62
2023-06-11T10:03:17.145Z,20.66
2023-06-11T10:04:16.975Z,20.71
2023-06-11T10:05:17.017Z,20.72
2023-06-11T10:06:17.446Z,20.72
2023-06-11T10:07:16.928Z,20.73
2023-06-11T10:08:16.910Z,20.75
2023-06-11T10:09:16.902Z,20.75
2023-06-11T10:10:16.953Z,20.77
2023-06-11T10:11:16.865Z,20.81
2023-06-11T10:12:17.463Z,20.85
2023-06-11T10:13:16.884Z,20.87
2023-06-11T10:14:16.843Z,20.89
2023-06-11T10:15:16.797Z,20.93
2023-06-11T10:16:16.833Z,20.98
2023-06-11T10:17:16.831Z,21.00
2023-06-11T10:18:16.786Z,21.02
2023-06-11T10:19:16.770Z,21.04
2023-06-11T10:20:16.882Z,21.06
2023-06-11T10:21:16.713Z,21.08
2023-06-11T10:22:16.734Z,21.10
2023-06-11T10:23:16.698Z,21.12
2023-06-11T10:24:16.764Z,21.12
2023-06-11T10:25:16.727Z,21.12
2023-06-11T10:26:16.691Z,21.13
2023-06-11T10:27:20.566Z,21.14
2023-06-11T10:28:16.628Z,21.16
2023-06-11T10:29:16.634Z,21.17
2023-06-11T10:30:16.644Z,21.19
2023-06-11T10:31:16.600Z,21.23
2023-06-11T10:32:16.592Z,21.29
2023-06-11T10:33:16.691Z,21.37
2023-06-11T10:34:16.670Z,21.45
2023-06-11T10:35:16.595Z,21.53
2023-06-11T10:36:16.548Z,21.58
2023-06-11T10:37:16.506Z,21.63
2023-06-11T10:38:16.536Z,21.68
2023-06-11T10:39:16.499Z,21.71
2023-06-11T10:40:19.648Z,21.73
2023-06-11T10:41:16.480Z,21.72
2023-06-11T10:42:16.441Z,21.73
2023-06-11T10:43:16.436Z,21.75
2023-06-11T10:44:16.411Z,21.78
2023-06-11T10:45:16.504Z,21.81
2023-06-11T10:46:16.402Z,21.85
2023-06-11T10:47:16.401Z,21.88
2023-06-11T10:48:16.379Z,21.93
2023-06-11T10:49:16.410Z,21.96
2023-06-11T10:50:16.484Z,22.00
2023-06-11T10:51:16.347Z,22.01
2023-06-11T10:52:16.305Z,22.01
2023-06-11T10:53:16.334Z,22.03
2023-06-11T10:54:16.976Z,22.06
2023-06-11T10:55:16.252Z,22.09
2023-06-11T10:56:16.421Z,22.12
2023-06-11T10:57:16.453Z,22.13
2023-06-11T10:58:18.924Z,22.16
2023-06-11T10:59:16.281Z,22.17
2023-06-11T11:00:16.251Z,22.18
2023-06-11T11:01:16.239Z,22.19
2023-06-11T11:02:16.295Z,22.20
2023-06-11T11:03:16.380Z,22.22
2023-06-11T11:04:16.293Z,22.24
2023-06-11T11:05:16.191Z,22.24
2023-06-11T11:06:16.146Z,22.25
2023-06-11T11:07:16.129Z,22.26
2023-06-11T11:08:19.910Z,22.27
2023-06-11T11:09:17.065Z,22.28
2023-06-11T11:10:16.061Z,22.29
2023-06-11T11:11:16.086Z,22.26
2023-06-11T11:12:16.076Z,22.26
2023-06-11T11:13:16.108Z,22.29
2023-06-11T11:14:17.191Z,22.33
2023-06-11T11:15:16.386Z,22.38
2023-06-11T11:16:16.001Z,22.43
2023-06-11T11:17:15.981Z,22.46
2023-06-11T11:18:16.034Z,22.49
2023-06-11T11:19:16.842Z,22.51
2023-06-11T11:20:16.160Z,22.55
2023-06-11T11:21:15.937Z,22.59
2023-06-11T11:22:15.945Z,22.63
2023-06-11T11:23:15.894Z,22.64
2023-06-11T11:24:15.925Z,22.66
2023-06-11T11:25:15.914Z,22.64
2023-06-11T11:26:15.862Z,22.63
2023-06-11T11:27:15.860Z,22.66
2023-06-11T11:28:15.845Z,22.71
2023-06-11T11:29:15.802Z,22.78
2023-06-11T11:30:15.889Z,22.85
2023-06-11T11:31:15.827Z,22.92
2023-06-11T11:32:15.845Z,22.98
2023-06-11T11:33:15.896Z,23.06
2023-06-11T11:34:15.764Z,23.13
2023-06-11T11:35:15.765Z,23.20
2023-06-11T11:36:15.774Z,23.25
2023-06-11T11:37:15.694Z,23.28
2023-06-11T11:38:15.702Z,23.29
2023-06-11T11:39:15.681Z,23.29
2023-06-11T11:40:15.888Z,23.24
2023-06-11T11:41:15.661Z,23.19
2023-06-11T11:42:15.630Z,23.14
2023-06-11T11:43:15.626Z,23.09
2023-06-11T11:44:15.610Z,23.06
2023-06-11T11:45:15.594Z,23.02
2023-06-11T11:46:15.596Z,22.99
2023-06-11T11:47:15.577Z,22.98
2023-06-11T11:48:15.590Z,22.98
2023-06-11T11:49:15.550Z,22.99
2023-06-11T11:50:15.564Z,23.00
2023-06-11T11:51:15.513Z,23.01
2023-06-11T11:52:15.500Z,23.05
2023-06-11T11:53:15.516Z,23.08
2023-06-11T11:54:15.494Z,23.12
2023-06-11T11:55:15.485Z,23.15
2023-06-11T11:56:15.492Z,23.16
2023-06-11T11:57:15.442Z,23.14
2023-06-11T11:58:15.464Z,23.09
2023-06-11T11:59:15.405Z,23.05
2023-06-11T12:00:15.461Z,23.01
2023-06-11T12:01:15.373Z,22.97
2023-06-11T12:02:15.393Z,22.93
2023-06-11T12:03:15.475Z,22.90
2023-06-11T12:04:15.329Z,22.87
2023-06-11T12:05:15.448Z,22.82
2023-06-11T12:06:15.346Z,22.76
2023-06-11T12:07:15.303Z,22.71
2023-06-11T12:08:15.275Z,22.66
2023-06-11T12:09:15.261Z,22.63
2023-06-11T12:10:15.409Z,22.61
2023-06-11T12:11:15.296Z,22.60
2023-06-11T12:12:15.231Z,22.59
2023-06-11T12:13:15.222Z,22.57
2023-06-11T12:14:15.190Z,22.57
2023-06-11T12:15:15.164Z,22.57
2023-06-11T12:16:15.221Z,22.59
2023-06-11T12:17:15.154Z,22.61
2023-06-11T12:18:15.249Z,22.64
2023-06-11T12:19:23.323Z,22.67
2023-06-11T12:20:16.126Z,22.66
2023-06-11T12:21:15.084Z,22.67
2023-06-11T12:22:15.132Z,22.69
2023-06-11T12:23:15.090Z,22.71
2023-06-11T12:24:15.190Z,22.73
2023-06-11T12:25:15.083Z,22.76
2023-06-11T12:26:15.041Z,22.81
2023-06-11T12:27:15.030Z,22.89
2023-06-11T12:28:15.023Z,22.98
2023-06-11T12:29:15.003Z,23.06
2023-06-11T12:30:15.050Z,23.12
2023-06-11T12:31:14.981Z,23.18
2023-06-11T12:32:15.077Z,23.24
2023-06-11T12:33:15.007Z,23.28
2023-06-11T12:34:14.941Z,23.29
2023-06-11T12:35:14.937Z,23.31
2023-06-11T12:36:14.903Z,23.34
2023-06-11T12:37:14.864Z,23.35
2023-06-11T12:38:14.860Z,23.37
2023-06-11T12:39:14.879Z,23.40
2023-06-11T12:40:14.987Z,23.44
2023-06-11T12:41:14.847Z,23.46
2023-06-11T12:42:14.838Z,23.46
2023-06-11T12:43:14.877Z,23.48
2023-06-11T12:44:14.810Z,23.51
2023-06-11T12:45:14.800Z,23.55
2023-06-11T12:46:14.817Z,23.59
2023-06-11T12:47:14.785Z,23.62
2023-06-11T12:48:14.751Z,23.64
2023-06-11T12:49:14.737Z,23.65
2023-06-11T12:50:16.737Z,23.66
2023-06-11T12:51:15.705Z,23.65
2023-06-11T12:52:14.705Z,23.65
2023-06-11T12:53:14.698Z,23.64